Minto, Canada
Current Conditions -  °F | °C
As of 10:00 AM on Thursday 30 Oct 2014 (Local Time) from CYBR Reporting Station
Broken Clouds Broken Clouds  
Wind Chill: -7°   Ceiling: 1900
Heat Index: -1°   Visibility: 15mi
Dew Point: -5°   Wind: 15mph
Humidity: 75%   Direction: 360°N
Pressure: 30.39"   Gusts: 23mph
Location:  49.4°N, 100.02°W
Report Text: CYBR 301500Z 36013G20KT 15SM BKN019 M01/M05 A3039 RMK SC7 SLP315
Loading
Personal Weather Stations






























Interactive Weather Map
Tropical Storm Tracking
New forecast layout! Learn more

10-Day Weather Forecast

Advertisements
Track Severe Weather on mobile